createdAt,value
2023-03-06T00:01:00.149Z,7.43
2023-03-06T00:03:28.254Z,8.15
2023-03-06T00:05:57.893Z,10.73
2023-03-06T00:08:27.456Z,5.15
2023-03-06T00:10:56.379Z,6.88
2023-03-06T00:13:26.929Z,5.60
2023-03-06T00:15:54.464Z,5.95
2023-03-06T00:18:22.017Z,8.57
2023-03-06T00:20:49.382Z,7.15
2023-03-06T00:23:16.975Z,9.32
2023-03-06T00:25:47.158Z,6.28
2023-03-06T00:28:15.886Z,5.55
2023-03-06T00:30:44.129Z,5.80
2023-03-06T00:33:12.322Z,7.00
2023-03-06T00:35:40.444Z,5.15
2023-03-06T00:38:08.278Z,7.05
2023-03-06T00:40:35.477Z,5.50
2023-03-06T00:43:03.036Z,5.45
2023-03-06T00:45:30.592Z,7.47
2023-03-06T00:47:58.032Z,5.80
2023-03-06T00:50:25.216Z,7.78
2023-03-06T00:52:52.962Z,17.30
2023-03-06T00:55:20.185Z,16.85
2023-03-06T00:57:47.675Z,9.18
2023-03-06T01:00:15.454Z,14.48
2023-03-06T01:02:42.970Z,13.85
2023-03-06T01:05:13.814Z,12.77
2023-03-06T01:07:41.401Z,9.55
2023-03-06T01:10:09.735Z,10.38
2023-03-06T01:12:37.244Z,8.70
2023-03-06T01:15:05.897Z,8.45
2023-03-06T01:17:33.424Z,7.22
2023-03-06T01:20:00.646Z,8.63
2023-03-06T01:22:28.227Z,11.15
2023-03-06T01:24:55.350Z,7.35
2023-03-06T01:27:22.943Z,6.20
2023-03-06T01:29:50.271Z,9.50
2023-03-06T01:32:17.763Z,8.32
2023-03-06T01:34:44.895Z,11.70
2023-03-06T01:37:12.760Z,9.25
2023-03-06T01:39:39.917Z,8.18
2023-03-06T01:42:07.624Z,12.23
2023-03-06T01:44:34.787Z,8.52
2023-03-06T01:47:02.589Z,11.77
2023-03-06T01:49:38.394Z,5.50
2023-03-06T01:52:19.364Z,10.40
2023-03-06T01:54:57.081Z,9.90
2023-03-06T01:57:30.166Z,7.65
2023-03-06T02:00:21.437Z,7.28
2023-03-06T02:02:55.724Z,8.00
2023-03-06T02:05:23.406Z,9.85
2023-03-06T02:07:52.068Z,9.55
2023-03-06T02:10:20.806Z,9.20
2023-03-06T02:12:50.648Z,6.72
2023-03-06T02:15:21.519Z,8.02
2023-03-06T02:17:51.707Z,15.90
2023-03-06T02:20:40.114Z,7.30
2023-03-06T02:23:17.274Z,17.42
2023-03-06T02:25:48.111Z,9.57
2023-03-06T02:28:20.833Z,12.18
2023-03-06T02:30:51.371Z,10.60
2023-03-06T02:33:23.088Z,7.93
2023-03-06T02:35:57.858Z,7.35
2023-03-06T02:38:30.201Z,5.93
2023-03-06T02:40:58.243Z,11.90
2023-03-06T02:43:34.134Z,7.55
2023-03-06T02:46:02.483Z,11.98
2023-03-06T02:48:30.133Z,7.57
2023-03-06T02:50:57.477Z,7.05
2023-03-06T02:53:25.609Z,11.60
2023-03-06T02:55:52.980Z,8.95
2023-03-06T02:58:21.574Z,7.00
2023-03-06T03:00:50.332Z,8.18
2023-03-06T03:03:19.668Z,6.05
2023-03-06T03:05:46.847Z,5.35
2023-03-06T03:08:24.367Z,6.93
2023-03-06T03:10:56.793Z,5.75
2023-03-06T03:13:25.348Z,5.93
2023-03-06T03:16:05.113Z,5.03
2023-03-06T03:18:33.359Z,7.82
2023-03-06T03:21:00.588Z,8.98
2023-03-06T03:23:28.627Z,7.07
2023-03-06T03:26:07.294Z,7.30
2023-03-06T03:28:36.377Z,10.98
2023-03-06T03:31:09.345Z,7.57
2023-03-06T03:33:37.266Z,5.50
2023-03-06T03:36:06.701Z,6.78
2023-03-06T03:38:37.448Z,5.50
2023-03-06T03:41:05.371Z,7.32
2023-03-06T03:43:34.358Z,6.38
2023-03-06T03:46:01.769Z,6.43
2023-03-06T03:48:30.175Z,6.05
2023-03-06T03:51:13.033Z,5.90
2023-03-06T03:53:46.738Z,7.10
2023-03-06T03:56:17.838Z,7.20
2023-03-06T03:58:54.792Z,5.88
2023-03-06T04:01:24.311Z,8.75
2023-03-06T04:03:52.151Z,8.38
2023-03-06T04:06:20.187Z,13.30
2023-03-06T04:08:48.402Z,17.90
2023-03-06T04:11:16.105Z,18.08
2023-03-06T04:13:44.198Z,16.52
2023-03-06T04:16:11.472Z,16.30
2023-03-06T04:18:40.872Z,11.00
2023-03-06T04:21:08.797Z,11.52
2023-03-06T04:23:37.831Z,11.13
2023-03-06T04:26:06.166Z,10.15
2023-03-06T04:28:33.907Z,9.85
2023-03-06T04:31:02.358Z,9.57
2023-03-06T04:33:31.619Z,10.88
2023-03-06T04:35:59.119Z,13.00
2023-03-06T04:38:30.042Z,16.23
2023-03-06T04:40:57.236Z,13.52
2023-03-06T04:43:24.953Z,12.50
2023-03-06T04:45:52.247Z,11.93
2023-03-06T04:48:19.990Z,12.35
2023-03-06T04:50:47.465Z,11.65
2023-03-06T04:53:16.922Z,9.90
2023-03-06T04:55:44.125Z,11.40
2023-03-06T04:58:15.650Z,11.10
2023-03-06T05:00:43.203Z,8.35
2023-03-06T05:03:12.413Z,13.10
2023-03-06T05:05:39.609Z,14.27
2023-03-06T05:08:07.112Z,27.40
2023-03-06T05:10:34.368Z,19.30
2023-03-06T05:13:01.863Z,16.52
2023-03-06T05:15:29.138Z,20.17
2023-03-06T05:17:56.775Z,40.63
2023-03-06T05:20:24.539Z,58.58
2023-03-06T05:22:52.053Z,12.32
2023-03-06T05:25:19.339Z,5.63
2023-03-06T05:27:47.243Z,6.90
2023-03-06T05:30:15.187Z,6.57
2023-03-06T05:32:43.049Z,12.93
2023-03-06T05:35:21.047Z,9.30
2023-03-06T05:37:49.296Z,8.35
2023-03-06T05:40:17.225Z,6.55
2023-03-06T05:42:45.223Z,6.95
2023-03-06T05:45:12.782Z,7.47
2023-03-06T05:47:40.395Z,8.40
2023-03-06T05:50:08.589Z,6.32
2023-03-06T05:52:36.868Z,9.45
2023-03-06T05:55:04.248Z,6.00
2023-03-06T05:57:31.896Z,9.18
2023-03-06T05:59:59.177Z,8.57
2023-03-06T06:02:26.661Z,8.23
2023-03-06T06:04:53.850Z,9.05
2023-03-06T06:07:21.410Z,8.57
2023-03-06T06:09:48.628Z,8.48
2023-03-06T06:12:16.129Z,12.80
2023-03-06T06:14:43.274Z,12.85
2023-03-06T06:17:12.710Z,6.53
2023-03-06T06:19:39.982Z,8.00
2023-03-06T06:22:07.804Z,11.13
2023-03-06T06:24:35.037Z,15.63
2023-03-06T06:27:04.229Z,8.82
2023-03-06T06:29:32.384Z,12.93
2023-03-06T06:32:00.387Z,13.40
2023-03-06T06:34:28.365Z,11.73
2023-03-06T06:36:56.044Z,16.23
2023-03-06T06:39:24.029Z,15.30
2023-03-06T06:42:09.703Z,13.05
2023-03-06T06:44:40.208Z,15.50
2023-03-06T06:47:25.362Z,9.38
2023-03-06T06:49:54.373Z,8.30
2023-03-06T06:52:23.355Z,14.07
2023-03-06T06:54:51.086Z,14.25
2023-03-06T06:57:18.736Z,17.20
2023-03-06T06:59:46.159Z,26.70
2023-03-06T07:02:15.998Z,17.42
2023-03-06T07:05:01.990Z,9.80
2023-03-06T07:07:33.345Z,13.13
2023-03-06T07:10:00.711Z,7.82
2023-03-06T07:12:28.252Z,7.25
2023-03-06T07:14:55.854Z,7.40
2023-03-06T07:17:23.441Z,7.82
2023-03-06T07:19:50.907Z,6.35
2023-03-06T07:22:18.564Z,6.82
2023-03-06T07:24:45.836Z,8.85
2023-03-06T07:27:13.340Z,8.73
2023-03-06T07:29:43.392Z,8.60
2023-03-06T07:32:11.700Z,7.78
2023-03-06T07:34:38.972Z,7.30
2023-03-06T07:37:06.672Z,9.55
2023-03-06T07:39:34.024Z,14.95
2023-03-06T07:42:02.178Z,11.50
2023-03-06T07:44:38.583Z,13.30
2023-03-06T07:47:06.409Z,5.63
2023-03-06T07:49:35.018Z,9.77
2023-03-06T07:52:03.251Z,7.65
2023-03-06T07:54:30.915Z,8.52
2023-03-06T07:56:59.041Z,7.20
2023-03-06T07:59:29.072Z,7.88
2023-03-06T08:01:57.634Z,6.40
2023-03-06T08:04:24.859Z,12.13
2023-03-06T08:06:53.764Z,12.48
2023-03-06T08:09:20.982Z,11.43
2023-03-06T08:11:48.582Z,11.43
2023-03-06T08:14:15.906Z,9.35
2023-03-06T08:16:43.709Z,7.20
2023-03-06T08:19:11.081Z,8.60
2023-03-06T08:21:38.770Z,9.90
2023-03-06T08:24:07.481Z,10.10
2023-03-06T08:26:35.780Z,8.27
2023-03-06T08:29:03.863Z,6.18
2023-03-06T08:31:33.072Z,8.15
2023-03-06T08:34:06.409Z,10.80
2023-03-06T08:36:34.522Z,11.85
2023-03-06T08:39:02.685Z,5.78
2023-03-06T08:41:30.933Z,13.90
2023-03-06T08:43:58.707Z,11.05
2023-03-06T08:46:28.688Z,10.88
2023-03-06T08:48:58.791Z,10.15
2023-03-06T08:51:26.917Z,7.43
2023-03-06T08:53:54.248Z,13.95
2023-03-06T08:56:31.085Z,8.38
2023-03-06T08:59:01.037Z,9.05
2023-03-06T09:01:35.288Z,7.47
2023-03-06T09:04:06.054Z,8.48
2023-03-06T09:06:36.406Z,12.50
2023-03-06T09:09:04.163Z,7.72
2023-03-06T09:11:32.165Z,8.50
2023-03-06T09:13:59.609Z,6.25
2023-03-06T09:16:27.360Z,7.70
2023-03-06T09:18:55.108Z,7.70
2023-03-06T09:21:23.882Z,8.00
2023-03-06T09:23:52.196Z,10.85
2023-03-06T09:26:20.067Z,7.30
2023-03-06T09:28:47.611Z,8.40
2023-03-06T09:31:17.775Z,4.75
2023-03-06T09:33:45.554Z,5.88
2023-03-06T09:36:19.799Z,6.88
2023-03-06T09:38:50.077Z,8.40
2023-03-06T09:41:25.006Z,8.32
2023-03-06T09:44:04.939Z,5.72
2023-03-06T09:46:38.192Z,4.70
2023-03-06T09:49:29.380Z,3.25
2023-03-06T09:52:26.248Z,3.47
2023-03-06T09:54:57.778Z,3.38
2023-03-06T09:57:35.774Z,3.97
2023-03-06T10:00:13.021Z,2.22
2023-03-06T10:02:48.848Z,2.22
2023-03-06T10:05:24.584Z,3.53
2023-03-06T10:08:06.799Z,2.58
2023-03-06T10:10:50.716Z,2.63
2023-03-06T10:13:27.341Z,2.65
2023-03-06T10:16:17.690Z,6.30
2023-03-06T10:18:45.865Z,2.03
2023-03-06T10:21:24.667Z,2.80
2023-03-06T10:24:03.073Z,2.30
2023-03-06T10:26:41.530Z,4.35
2023-03-06T10:29:27.955Z,1.77
2023-03-06T10:32:09.662Z,2.22
2023-03-06T10:34:39.818Z,2.22
2023-03-06T10:37:31.017Z,1.40
2023-03-06T10:40:13.722Z,1.70
2023-03-06T10:42:41.044Z,2.67
2023-03-06T10:45:15.006Z,2.08
2023-03-06T10:47:43.392Z,2.90
2023-03-06T10:50:38.081Z,5.18
2023-03-06T10:53:21.090Z,1.02
2023-03-06T10:56:07.001Z,1.88
2023-03-06T10:58:34.333Z,1.05
2023-03-06T11:01:31.004Z,1.33
2023-03-06T11:04:21.369Z,2.03
2023-03-06T11:07:04.315Z,1.35
2023-03-06T11:09:34.313Z,2.50
2023-03-06T11:12:33.360Z,2.70
2023-03-06T11:15:07.550Z,6.95
2023-03-06T11:17:59.540Z,2.53
2023-03-06T11:20:49.927Z,1.80
2023-03-06T11:23:37.298Z,5.85
2023-03-06T11:26:16.295Z,1.42
2023-03-06T11:29:11.636Z,0.90
2023-03-06T11:31:54.840Z,0.80
2023-03-06T11:34:59.410Z,4.90
2023-03-06T11:37:32.420Z,2.75
2023-03-06T11:40:13.540Z,1.17
2023-03-06T11:43:14.255Z,1.20
2023-03-06T11:46:00.618Z,2.42
2023-03-06T11:48:56.584Z,2.15
2023-03-06T11:51:33.353Z,3.42
2023-03-06T11:54:01.311Z,3.70
2023-03-06T11:56:51.434Z,5.93
2023-03-06T12:00:00.387Z,1.90
2023-03-06T12:02:39.915Z,6.32
2023-03-06T12:05:18.042Z,2.95
2023-03-06T12:08:12.792Z,4.15
2023-03-06T12:10:51.882Z,2.90
2023-03-06T12:13:35.199Z,2.75
2023-03-06T12:16:24.491Z,2.60
2023-03-06T12:19:05.167Z,5.85
2023-03-06T12:21:38.568Z,7.65
2023-03-06T12:24:16.509Z,2.38
2023-03-06T12:27:21.236Z,7.25
2023-03-06T12:30:19.888Z,5.07
2023-03-06T12:32:56.570Z,11.23
2023-03-06T12:35:46.335Z,15.73
2023-03-06T12:38:22.636Z,6.05
2023-03-06T12:41:15.208Z,4.07
2023-03-06T12:43:51.555Z,5.72
2023-03-06T12:46:24.089Z,5.25
2023-03-06T12:48:57.222Z,11.45
2023-03-06T12:51:25.080Z,8.68
2023-03-06T12:53:53.449Z,11.02
2023-03-06T12:56:22.433Z,7.65
2023-03-06T12:58:58.034Z,7.68
2023-03-06T13:04:14.430Z,4.43
2023-03-06T13:06:51.457Z,6.38
2023-03-06T13:09:44.816Z,5.55
2023-03-06T13:12:25.809Z,8.27
2023-03-06T13:14:56.531Z,6.95
2023-03-06T13:17:24.139Z,5.60
2023-03-06T13:20:14.285Z,6.20
2023-03-06T13:22:45.134Z,5.65
2023-03-06T13:25:21.423Z,6.30
2023-03-06T13:27:55.317Z,8.00
2023-03-06T13:30:27.400Z,5.38
2023-03-06T13:32:56.348Z,7.47
2023-03-06T13:35:52.816Z,11.85
2023-03-06T13:38:30.295Z,7.78
2023-03-06T13:41:25.509Z,10.27
2023-03-06T13:43:58.217Z,4.38
2023-03-06T13:46:35.335Z,7.95
2023-03-06T13:49:11.942Z,4.03
2023-03-06T13:54:55.622Z,10.18
2023-03-06T13:57:29.046Z,7.03
2023-03-06T14:00:19.634Z,8.93
2023-03-06T14:03:31.556Z,14.68
2023-03-06T14:05:59.242Z,8.55
2023-03-06T14:08:30.853Z,5.22
2023-03-06T14:11:19.485Z,246.30
2023-03-06T14:13:51.832Z,541.63
2023-03-06T14:16:37.555Z,73.70
2023-03-06T14:19:17.632Z,41.25
2023-03-06T14:21:53.475Z,35.97
2023-03-06T14:24:26.181Z,146.18
2023-03-06T14:26:53.899Z,158.50
2023-03-06T14:29:26.216Z,167.23
2023-03-06T14:31:56.071Z,182.55
2023-03-06T14:34:29.089Z,123.50
2023-03-06T14:37:08.242Z,101.60
2023-03-06T14:39:37.127Z,247.43
2023-03-06T14:42:25.407Z,183.15
2023-03-06T14:45:03.427Z,229.90
2023-03-06T14:47:33.393Z,235.63
2023-03-06T14:50:27.250Z,185.38
2023-03-06T14:53:19.251Z,155.25
2023-03-06T14:55:56.831Z,28.45
2023-03-06T14:58:54.326Z,47.22
2023-03-06T15:01:31.848Z,16.85
2023-03-06T15:04:01.574Z,123.00
2023-03-06T15:06:40.334Z,98.32
2023-03-06T15:09:20.780Z,119.97
2023-03-06T15:11:57.086Z,137.35
2023-03-06T15:14:33.049Z,128.05
2023-03-06T15:17:31.305Z,77.43
2023-03-06T15:20:00.447Z,19.33
2023-03-06T15:22:30.059Z,32.80
2023-03-06T15:25:16.340Z,22.52
2023-03-06T15:27:56.323Z,44.53
2023-03-06T15:30:33.865Z,29.67
2023-03-06T15:33:18.342Z,39.83
2023-03-06T15:36:04.042Z,9.90
2023-03-06T15:38:41.607Z,9.75
2023-03-06T15:41:42.852Z,36.13
2023-03-06T15:44:14.562Z,9.52
2023-03-06T15:46:44.491Z,20.15
2023-03-06T15:49:17.958Z,12.00
2023-03-06T15:51:46.543Z,17.35
2023-03-06T15:54:14.410Z,35.10
2023-03-06T15:56:44.119Z,18.85
2023-03-06T15:59:27.028Z,28.83
2023-03-06T16:01:54.879Z,10.13
2023-03-06T16:04:22.147Z,10.10
2023-03-06T16:06:49.802Z,14.90
2023-03-06T16:09:16.974Z,14.60
2023-03-06T16:11:45.211Z,11.55
2023-03-06T16:14:24.191Z,4.15
2023-03-06T16:16:54.411Z,8.07
2023-03-06T16:19:26.473Z,5.13
2023-03-06T16:21:55.906Z,7.53
2023-03-06T16:24:23.298Z,7.05
2023-03-06T16:26:53.268Z,5.82
2023-03-06T16:29:24.189Z,5.57
2023-03-06T16:31:52.232Z,5.93
2023-03-06T16:34:20.082Z,7.82
2023-03-06T16:36:49.239Z,8.68
2023-03-06T16:39:21.882Z,9.82
2023-03-06T16:41:51.197Z,13.70
2023-03-06T16:44:19.791Z,18.45
2023-03-06T16:46:49.540Z,19.77
2023-03-06T16:49:22.429Z,16.60
2023-03-06T16:51:51.062Z,30.50
2023-03-06T16:54:18.880Z,16.98
2023-03-06T16:56:46.533Z,20.27
2023-03-06T16:59:13.868Z,19.48
2023-03-06T17:01:45.152Z,31.27
2023-03-06T17:04:12.682Z,18.73
2023-03-06T17:06:42.078Z,22.33
2023-03-06T17:09:11.083Z,27.67
2023-03-06T17:11:39.044Z,18.10
2023-03-06T17:14:07.178Z,20.13
2023-03-06T17:16:39.398Z,23.15
2023-03-06T17:19:07.499Z,23.75
2023-03-06T17:21:35.728Z,21.98
2023-03-06T17:24:03.941Z,21.75
2023-03-06T17:26:31.712Z,20.95
2023-03-06T17:28:59.145Z,20.88
2023-03-06T17:31:28.342Z,19.92
2023-03-06T17:34:00.546Z,16.80
2023-03-06T17:36:29.558Z,14.48
2023-03-06T17:38:59.470Z,15.02
2023-03-06T17:41:27.288Z,12.52
2023-03-06T17:43:58.535Z,12.45
2023-03-06T17:46:26.278Z,15.23
2023-03-06T17:48:53.710Z,11.90
2023-03-06T17:51:21.327Z,13.38
2023-03-06T17:53:49.478Z,18.05
2023-03-06T17:56:17.211Z,23.83
2023-03-06T17:58:45.102Z,19.30
2023-03-06T18:01:19.824Z,18.63
2023-03-06T18:03:49.514Z,15.98
2023-03-06T18:06:18.565Z,16.45
2023-03-06T18:08:46.189Z,15.25
2023-03-06T18:11:14.088Z,15.90
2023-03-06T18:13:44.110Z,16.10
2023-03-06T18:16:13.343Z,15.90
2023-03-06T18:18:40.941Z,19.23
2023-03-06T18:21:10.723Z,14.48
2023-03-06T18:23:39.404Z,21.75
2023-03-06T18:26:11.886Z,18.08
2023-03-06T18:28:42.563Z,16.92
2023-03-06T18:31:16.025Z,21.40
2023-03-06T18:33:43.570Z,15.90
2023-03-06T18:36:11.644Z,17.42
2023-03-06T18:38:40.373Z,15.68
2023-03-06T18:41:08.783Z,17.15
2023-03-06T18:43:37.108Z,16.60
2023-03-06T18:46:05.785Z,22.58
2023-03-06T18:48:33.079Z,19.80
2023-03-06T18:51:08.074Z,17.33
2023-03-06T18:53:36.487Z,17.20
2023-03-06T18:56:04.837Z,20.83
2023-03-06T18:58:32.813Z,15.90
2023-03-06T19:01:08.219Z,19.20
2023-03-06T19:03:36.227Z,21.60
2023-03-06T19:06:06.732Z,20.48
2023-03-06T19:08:35.488Z,19.58
2023-03-06T19:11:09.200Z,29.95
2023-03-06T19:13:36.696Z,21.08
2023-03-06T19:16:04.747Z,21.77
2023-03-06T19:18:32.125Z,19.70
2023-03-06T19:21:18.136Z,27.15
2023-03-06T19:23:45.545Z,29.37
2023-03-06T19:26:13.866Z,28.92
2023-03-06T19:28:43.246Z,33.50
2023-03-06T19:31:11.904Z,34.03
2023-03-06T19:33:40.249Z,44.58
2023-03-06T19:36:10.414Z,48.25
2023-03-06T19:38:37.982Z,50.95
2023-03-06T19:41:06.447Z,47.50
2023-03-06T19:43:33.771Z,50.22
2023-03-06T19:46:01.620Z,54.92
2023-03-06T19:48:28.969Z,60.25
2023-03-06T19:50:56.726Z,52.40
2023-03-06T19:53:24.045Z,74.82
2023-03-06T19:55:51.740Z,68.32
2023-03-06T19:58:19.010Z,202.23
2023-03-06T20:00:46.545Z,141.30
2023-03-06T20:03:13.877Z,124.78
2023-03-06T20:05:48.074Z,210.32
2023-03-06T20:08:18.397Z,258.15
2023-03-06T20:10:45.948Z,219.57
2023-03-06T20:13:13.573Z,162.05
2023-03-06T20:15:41.152Z,171.30
2023-03-06T20:18:08.586Z,197.27
2023-03-06T20:20:37.991Z,190.25
2023-03-06T20:23:05.179Z,169.25
2023-03-06T20:25:36.378Z,156.20
2023-03-06T20:28:05.123Z,164.32
2023-03-06T20:30:38.190Z,166.25
2023-03-06T20:33:05.888Z,229.00
2023-03-06T20:35:33.379Z,259.13
2023-03-06T20:38:00.877Z,268.38
2023-03-06T20:40:28.512Z,231.23
2023-03-06T20:42:55.794Z,205.30
2023-03-06T20:45:23.374Z,132.95
2023-03-06T20:47:50.644Z,142.88
2023-03-06T20:50:18.287Z,158.18
2023-03-06T20:52:45.451Z,117.00
2023-03-06T20:55:12.980Z,137.40
2023-03-06T20:57:40.283Z,147.88
2023-03-06T21:00:08.927Z,91.47
2023-03-06T21:02:36.201Z,90.68
2023-03-06T21:05:04.055Z,109.55
2023-03-06T21:07:31.546Z,100.68
2023-03-06T21:09:59.136Z,78.03
2023-03-06T21:12:26.699Z,57.70
2023-03-06T21:14:54.439Z,69.05
2023-03-06T21:17:21.628Z,74.20
2023-03-06T21:19:49.250Z,75.95
2023-03-06T21:22:16.520Z,70.85
2023-03-06T21:24:44.408Z,63.78
2023-03-06T21:27:14.679Z,61.90
2023-03-06T21:29:42.181Z,65.97
2023-03-06T21:32:09.420Z,83.68
2023-03-06T21:34:37.131Z,86.13
2023-03-06T21:37:04.510Z,91.60
2023-03-06T21:39:32.077Z,92.45
2023-03-06T21:41:59.341Z,92.78
2023-03-06T21:44:26.801Z,98.28
2023-03-06T21:46:53.955Z,105.60
2023-03-06T21:49:26.146Z,107.78
2023-03-06T21:51:53.784Z,104.03
2023-03-06T21:54:21.742Z,125.53
2023-03-06T21:56:48.972Z,139.25
2023-03-06T21:59:16.537Z,128.95
2023-03-06T22:01:43.985Z,142.23
2023-03-06T22:04:11.477Z,143.82
2023-03-06T22:06:40.554Z,164.32
2023-03-06T22:09:08.375Z,151.75
2023-03-06T22:11:37.512Z,133.93
2023-03-06T22:14:05.939Z,145.43
2023-03-06T22:16:33.659Z,161.88
2023-03-06T22:19:01.204Z,175.52
2023-03-06T22:21:28.461Z,154.38
2023-03-06T22:23:57.806Z,177.73
2023-03-06T22:26:28.800Z,189.95
2023-03-06T22:28:56.567Z,184.15
2023-03-06T22:31:26.100Z,191.80
2023-03-06T22:33:55.015Z,190.52
2023-03-06T22:36:23.418Z,207.35
2023-03-06T22:38:55.804Z,200.45
2023-03-06T22:41:23.638Z,193.57
2023-03-06T22:43:51.125Z,180.88
2023-03-06T22:46:18.965Z,185.25
2023-03-06T22:48:46.635Z,186.63
2023-03-06T22:51:19.618Z,209.70
2023-03-06T22:53:48.253Z,166.35
2023-03-06T22:56:18.968Z,144.43
2023-03-06T22:58:47.434Z,141.07
2023-03-06T23:01:19.983Z,237.00
2023-03-06T23:03:55.957Z,238.70
2023-03-06T23:06:26.193Z,193.48
2023-03-06T23:09:06.706Z,192.95
2023-03-06T23:11:52.338Z,153.55
2023-03-06T23:14:38.395Z,158.43
2023-03-06T23:17:24.202Z,156.93
2023-03-06T23:20:12.120Z,135.68
2023-03-06T23:22:58.185Z,126.40
2023-03-06T23:25:44.389Z,129.57
2023-03-06T23:28:12.085Z,137.75
2023-03-06T23:30:40.460Z,128.65
2023-03-06T23:33:08.773Z,128.18
2023-03-06T23:35:39.161Z,132.23
2023-03-06T23:38:06.736Z,115.00
2023-03-06T23:40:34.927Z,73.30
2023-03-06T23:43:02.758Z,111.30
2023-03-06T23:45:31.123Z,74.63
2023-03-06T23:47:58.497Z,50.45
2023-03-06T23:50:26.528Z,44.75
2023-03-06T23:52:54.964Z,47.92
2023-03-06T23:55:23.583Z,40.25
2023-03-06T23:57:50.672Z,38.72
